createdAt,value
2022-12-16T00:02:13.193Z,97920.05
2022-12-16T00:04:46.041Z,97917.70
2022-12-16T00:07:17.848Z,97922.41
2022-12-16T00:09:51.308Z,97921.52
2022-12-16T00:12:23.863Z,97922.98
2022-12-16T00:14:56.908Z,97921.83
2022-12-16T00:17:30.686Z,97924.42
2022-12-16T00:20:04.936Z,97931.04
2022-12-16T00:22:36.805Z,97936.21
2022-12-16T00:25:10.925Z,97931.40
2022-12-16T00:27:42.827Z,97937.34
2022-12-16T00:30:16.635Z,97937.63
2022-12-16T00:32:49.594Z,97928.38
2022-12-16T00:35:26.306Z,97925.95
2022-12-16T00:37:58.889Z,97919.10
2022-12-16T00:40:31.729Z,97909.44
2022-12-16T00:43:06.361Z,97906.58
2022-12-16T00:45:40.207Z,97903.25
2022-12-16T00:48:13.061Z,97901.67
2022-12-16T00:50:47.258Z,97907.44
2022-12-16T00:53:20.891Z,97903.45
2022-12-16T00:55:53.729Z,97909.14
2022-12-16T00:58:25.777Z,97898.02
2022-12-16T01:00:59.287Z,97901.63
2022-12-16T01:03:31.737Z,97903.03
2022-12-16T01:06:06.057Z,97898.71
2022-12-16T01:08:38.072Z,97891.16
2022-12-16T01:11:13.003Z,97878.36
2022-12-16T01:13:45.848Z,97881.66
2022-12-16T01:16:19.427Z,97874.98
2022-12-16T01:18:56.675Z,97868.61
2022-12-16T01:21:29.528Z,97872.81
2022-12-16T01:24:03.926Z,97865.70
2022-12-16T01:26:40.235Z,97859.55
2022-12-16T01:29:12.903Z,97863.63
2022-12-16T01:31:47.887Z,97862.98
2022-12-16T01:34:20.310Z,97856.14
2022-12-16T01:36:53.221Z,97853.67
2022-12-16T01:39:30.800Z,97851.75
2022-12-16T01:42:05.149Z,97849.05
2022-12-16T01:44:38.133Z,97845.32
2022-12-16T01:47:17.855Z,97838.06
2022-12-16T01:49:54.435Z,97834.76
2022-12-16T01:52:31.180Z,97831.34
2022-12-16T01:55:07.406Z,97817.61
2022-12-16T01:57:44.030Z,97801.84
2022-12-16T02:00:18.942Z,97802.70
2022-12-16T02:02:51.393Z,97801.80
2022-12-16T02:05:27.410Z,97799.39
2022-12-16T02:08:03.527Z,97799.16
2022-12-16T02:10:49.198Z,97795.33
2022-12-16T02:13:30.586Z,97797.94
2022-12-16T02:16:13.897Z,97793.79
2022-12-16T02:18:55.884Z,97789.30
2022-12-16T02:21:50.098Z,97782.86
2022-12-16T02:24:57.868Z,97776.91
2022-12-16T02:27:55.373Z,97772.06
2022-12-16T02:31:00.573Z,97774.04
2022-12-16T02:33:48.951Z,97769.35
2022-12-16T02:36:26.265Z,97769.30
2022-12-16T02:39:02.641Z,97766.92
2022-12-16T02:41:45.311Z,97757.80
2022-12-16T02:44:19.987Z,97749.36
2022-12-16T02:46:57.161Z,97749.60
2022-12-16T02:49:48.595Z,97751.56
2022-12-16T02:52:26.318Z,97745.35
2022-12-16T02:55:05.749Z,97745.42
2022-12-16T02:57:58.552Z,97736.64
2022-12-16T03:00:39.288Z,97735.36
2022-12-16T03:03:17.213Z,97733.34
2022-12-16T03:05:52.751Z,97740.59
2022-12-16T03:08:41.034Z,97738.05
2022-12-16T03:11:18.492Z,97735.48
2022-12-16T03:13:54.786Z,97727.27
2022-12-16T03:16:30.929Z,97726.52
2022-12-16T03:19:08.285Z,97724.56
2022-12-16T03:21:43.685Z,97720.70
2022-12-16T03:24:18.607Z,97710.89
2022-12-16T03:26:57.454Z,97710.41
2022-12-16T03:29:41.761Z,97710.09
2022-12-16T03:32:20.935Z,97709.42
2022-12-16T03:34:54.877Z,97698.46
2022-12-16T03:37:30.621Z,97691.40
2022-12-16T03:40:05.995Z,97686.58
2022-12-16T03:42:40.724Z,97683.11
2022-12-16T03:45:17.191Z,97673.88
2022-12-16T03:47:57.476Z,97670.61
2022-12-16T03:50:34.063Z,97664.16
2022-12-16T03:53:09.274Z,97668.88
2022-12-16T03:55:42.226Z,97672.91
2022-12-16T03:58:15.763Z,97669.05
2022-12-16T04:00:49.725Z,97665.09
2022-12-16T04:03:24.984Z,97663.46
2022-12-16T04:05:57.033Z,97661.35
2022-12-16T04:08:33.886Z,97666.11
2022-12-16T04:11:27.010Z,97666.86
2022-12-16T04:14:26.102Z,97659.17
2022-12-16T04:17:17.281Z,97662.02
2022-12-16T04:20:19.898Z,97661.68
2022-12-16T04:23:12.918Z,97653.92
2022-12-16T04:25:46.593Z,97647.63
2022-12-16T04:28:20.568Z,97655.50
2022-12-16T04:30:53.003Z,97651.72
2022-12-16T04:33:46.405Z,97657.89
2022-12-16T04:36:49.597Z,97657.75
2022-12-16T04:39:44.201Z,97661.69
2022-12-16T04:42:35.924Z,97666.09
2022-12-16T04:45:28.536Z,97668.23
2022-12-16T04:48:21.845Z,97663.86
2022-12-16T04:51:14.842Z,97658.84
2022-12-16T04:54:06.341Z,97665.23
2022-12-16T04:56:56.471Z,97668.19
2022-12-16T04:59:46.600Z,97668.23
2022-12-16T05:02:38.751Z,97665.98
2022-12-16T05:05:31.231Z,97656.71
2022-12-16T05:08:23.439Z,97644.66
2022-12-16T05:11:13.468Z,97633.90
2022-12-16T05:14:04.930Z,97632.17
2022-12-16T05:16:58.147Z,97640.67
2022-12-16T05:19:51.714Z,97647.39
2022-12-16T05:22:45.200Z,97653.52
2022-12-16T05:25:37.552Z,97650.20
2022-12-16T05:28:29.297Z,97638.98
2022-12-16T05:31:22.705Z,97635.83
2022-12-16T05:34:13.965Z,97631.15
2022-12-16T05:37:04.437Z,97627.80
2022-12-16T05:39:54.720Z,97626.24
2022-12-16T05:42:46.794Z,97617.33
2022-12-16T05:45:37.752Z,97620.48
2022-12-16T05:48:31.182Z,97617.75
2022-12-16T05:51:22.072Z,97622.45
2022-12-16T05:54:12.246Z,97615.08
2022-12-16T05:57:03.470Z,97609.66
2022-12-16T05:59:53.954Z,97608.84
2022-12-16T06:02:47.018Z,97604.88
2022-12-16T06:05:39.244Z,97611.75
2022-12-16T06:08:32.339Z,97622.47
2022-12-16T06:11:26.177Z,97625.35
2022-12-16T06:14:16.637Z,97624.64
2022-12-16T06:17:09.852Z,97620.77
2022-12-16T06:20:01.659Z,97612.56
2022-12-16T06:22:54.236Z,97597.61
2022-12-16T06:25:44.720Z,97588.78
2022-12-16T06:28:33.945Z,97589.08
2022-12-16T06:31:26.588Z,97589.42
2022-12-16T06:34:17.342Z,97595.59
2022-12-16T06:37:09.340Z,97597.86
2022-12-16T06:40:00.085Z,97610.63
2022-12-16T06:42:53.751Z,97609.06
2022-12-16T06:45:44.543Z,97599.56
2022-12-16T06:48:37.080Z,97601.34
2022-12-16T06:51:27.505Z,97594.69
2022-12-16T06:54:18.347Z,97589.79
2022-12-16T06:57:10.393Z,97594.64
2022-12-16T07:00:00.200Z,97595.32
2022-12-16T07:02:52.557Z,97601.29
2022-12-16T07:05:43.600Z,97603.27
2022-12-16T07:08:34.518Z,97601.58
2022-12-16T07:11:27.238Z,97594.34
2022-12-16T07:14:17.462Z,97593.59
2022-12-16T07:17:05.678Z,97585.18
2022-12-16T07:19:56.600Z,97567.02
2022-12-16T07:22:54.241Z,97564.02
2022-12-16T07:25:53.964Z,97569.63
2022-12-16T07:28:47.425Z,97568.08
2022-12-16T07:31:39.022Z,97571.71
2022-12-16T07:34:31.769Z,97570.21
2022-12-16T07:37:27.393Z,97572.76
2022-12-16T07:40:19.774Z,97571.77
2022-12-16T07:43:13.335Z,97565.87
2022-12-16T07:46:06.535Z,97564.11
2022-12-16T07:48:57.437Z,97562.68
2022-12-16T07:51:47.161Z,97560.81
2022-12-16T07:54:36.750Z,97558.52
2022-12-16T07:57:29.318Z,97555.27
2022-12-16T08:00:23.226Z,97555.95
2022-12-16T08:03:16.109Z,97566.61
2022-12-16T08:06:05.719Z,97559.57
2022-12-16T08:08:56.419Z,97553.45
2022-12-16T08:11:46.002Z,97555.45
2022-12-16T08:14:37.305Z,97560.64
2022-12-16T08:17:28.307Z,97566.33
2022-12-16T08:20:18.180Z,97570.29
2022-12-16T08:23:10.860Z,97575.13
2022-12-16T08:26:01.840Z,97584.25
2022-12-16T08:28:55.195Z,97591.32
2022-12-16T08:31:45.689Z,97594.96
2022-12-16T08:34:37.048Z,97596.43
2022-12-16T08:37:28.019Z,97588.89
2022-12-16T08:40:34.904Z,97592.16
2022-12-16T08:43:25.989Z,97588.44
2022-12-16T08:46:17.831Z,97588.12
2022-12-16T08:49:08.644Z,97598.98
2022-12-16T08:52:02.711Z,97604.45
2022-12-16T08:54:53.791Z,97604.34
2022-12-16T08:57:44.685Z,97614.56
2022-12-16T09:00:38.041Z,97622.32
2022-12-16T09:03:29.040Z,97618.94
2022-12-16T09:06:20.541Z,97612.94
2022-12-16T09:09:11.023Z,97623.52
2022-12-16T09:12:00.763Z,97622.41
2022-12-16T09:14:50.481Z,97620.45
2022-12-16T09:17:43.573Z,97618.46
2022-12-16T09:20:37.133Z,97621.80
2022-12-16T09:23:27.441Z,97620.21
2022-12-16T09:26:20.470Z,97630.06
2022-12-16T09:29:12.512Z,97634.70
2022-12-16T09:32:02.910Z,97642.35
2022-12-16T09:34:53.296Z,97650.11
2022-12-16T09:37:43.560Z,97652.03
2022-12-16T09:40:36.416Z,97660.71
2022-12-16T09:43:39.676Z,97672.48
2022-12-16T09:46:34.795Z,97671.84
2022-12-16T09:49:33.980Z,97673.51
2022-12-16T09:52:27.467Z,97679.22
2022-12-16T09:55:18.429Z,97678.09
2022-12-16T09:58:10.384Z,97682.23
2022-12-16T10:01:01.508Z,97680.63
2022-12-16T10:03:57.986Z,97680.11
2022-12-16T10:07:04.285Z,97670.52
2022-12-16T10:10:01.638Z,97671.41
2022-12-16T10:12:58.862Z,97669.19
2022-12-16T10:15:55.401Z,97668.89
2022-12-16T10:19:00.480Z,97667.08
2022-12-16T10:21:57.076Z,97662.98
2022-12-16T10:24:55.870Z,97661.31
2022-12-16T10:27:53.501Z,97662.83
2022-12-16T10:30:48.052Z,97661.08
2022-12-16T10:33:39.934Z,97664.73
2022-12-16T10:36:33.711Z,97665.43
2022-12-16T10:39:27.366Z,97664.86
2022-12-16T10:42:23.867Z,97662.90
2022-12-16T10:45:17.485Z,97665.14
2022-12-16T10:48:08.653Z,97663.05
2022-12-16T10:51:02.183Z,97667.98
2022-12-16T10:53:55.392Z,97670.46
2022-12-16T10:57:07.641Z,97674.70
2022-12-16T10:59:59.991Z,97678.13
2022-12-16T11:02:51.170Z,97671.05
2022-12-16T11:05:51.938Z,97661.59
2022-12-16T11:08:47.376Z,97663.63
2022-12-16T11:11:44.877Z,97657.37
2022-12-16T11:15:05.545Z,97644.17
2022-12-16T11:17:56.228Z,97649.19
2022-12-16T11:20:48.652Z,97646.27
2022-12-16T11:23:41.537Z,97649.72
2022-12-16T11:26:37.388Z,97665.10
2022-12-16T11:29:32.356Z,97664.92
2022-12-16T11:32:25.772Z,97663.35
2022-12-16T11:35:20.460Z,97667.64
2022-12-16T11:38:12.034Z,97666.77
2022-12-16T11:41:06.156Z,97655.98
2022-12-16T11:43:59.642Z,97643.38
2022-12-16T11:46:53.050Z,97646.75
2022-12-16T11:49:51.419Z,97660.60
2022-12-16T11:52:44.616Z,97682.96
2022-12-16T11:58:57.577Z,97695.52
2022-12-16T12:01:51.889Z,97706.86
2022-12-16T12:04:45.834Z,97708.27
2022-12-16T12:07:49.832Z,97701.65
2022-12-16T12:11:20.508Z,97687.92
2022-12-16T12:14:22.595Z,97688.66
2022-12-16T12:17:23.246Z,97703.95
2022-12-16T12:20:23.307Z,97701.13
2022-12-16T12:23:13.993Z,97700.63
2022-12-16T12:26:10.555Z,97711.52
2022-12-16T12:29:24.522Z,97719.04
2022-12-16T12:32:20.262Z,97726.05
2022-12-16T12:35:15.755Z,97730.08
2022-12-16T12:38:17.497Z,97736.07
2022-12-16T12:41:12.258Z,97743.70
2022-12-16T12:44:10.420Z,97749.27
2022-12-16T12:47:07.855Z,97748.65
2022-12-16T12:50:05.731Z,97746.67
2022-12-16T12:53:23.416Z,97744.19
2022-12-16T12:56:23.326Z,97746.31
2022-12-16T12:59:16.418Z,97749.23
2022-12-16T13:02:07.544Z,97752.52
2022-12-16T13:05:00.983Z,97754.17
2022-12-16T13:07:54.698Z,97755.34
2022-12-16T13:10:58.029Z,97762.23
2022-12-16T13:13:56.514Z,97777.91
2022-12-16T13:17:23.436Z,97780.19
2022-12-16T13:20:17.773Z,97774.58
2022-12-16T13:23:12.006Z,97773.92
2022-12-16T13:26:12.952Z,97785.06
2022-12-16T13:29:26.868Z,97792.75
2022-12-16T13:32:23.398Z,97800.16
2022-12-16T13:35:21.012Z,97806.34
2022-12-16T13:38:29.768Z,97801.02
2022-12-16T13:41:22.893Z,97807.69
2022-12-16T13:44:13.918Z,97808.27
2022-12-16T13:47:08.901Z,97820.55
2022-12-16T13:50:05.476Z,97827.49
2022-12-16T13:53:16.873Z,97831.23
2022-12-16T13:56:15.255Z,97842.50
2022-12-16T13:59:08.472Z,97835.14
2022-12-16T14:02:14.120Z,97838.44
2022-12-16T14:05:07.706Z,97846.37
2022-12-16T14:08:01.372Z,97848.42
2022-12-16T14:10:54.426Z,97856.83
2022-12-16T14:13:55.671Z,97862.23
2022-12-16T14:16:56.692Z,97861.77
2022-12-16T14:19:53.910Z,97860.67
2022-12-16T14:22:56.145Z,97862.25
2022-12-16T14:25:52.001Z,97865.88
2022-12-16T14:28:45.775Z,97859.94
2022-12-16T14:31:38.958Z,97863.41
2022-12-16T14:34:34.936Z,97857.99
2022-12-16T14:37:34.776Z,97853.20
2022-12-16T14:40:39.388Z,97861.39
2022-12-16T14:43:35.742Z,97868.71
2022-12-16T14:46:31.202Z,97876.56
2022-12-16T14:49:23.517Z,97874.66
2022-12-16T14:52:15.242Z,97876.34
2022-12-16T14:55:08.682Z,97878.73
2022-12-16T14:57:59.102Z,97884.53
2022-12-16T15:00:55.965Z,97894.86
2022-12-16T15:03:56.203Z,97910.94
2022-12-16T15:06:49.196Z,97931.77
2022-12-16T15:09:43.537Z,97927.20
2022-12-16T15:12:36.635Z,97928.27
2022-12-16T15:15:33.433Z,97934.55
2022-12-16T15:18:33.594Z,97934.95
2022-12-16T15:21:24.545Z,97940.65
2022-12-16T15:24:15.632Z,97940.67
2022-12-16T15:27:08.748Z,97946.52
2022-12-16T15:30:02.757Z,97954.32
2022-12-16T15:32:55.942Z,97969.17
2022-12-16T15:35:50.456Z,97974.44
2022-12-16T15:38:48.797Z,97982.43
2022-12-16T15:41:52.461Z,97996.72
2022-12-16T15:44:47.096Z,98000.68
2022-12-16T15:48:05.808Z,98001.38
2022-12-16T15:50:56.389Z,98009.11
2022-12-16T15:53:52.485Z,98006.45
2022-12-16T15:56:45.556Z,98016.88
2022-12-16T15:59:47.960Z,98020.95
2022-12-16T16:02:42.811Z,98026.42
2022-12-16T16:05:38.544Z,98024.58
2022-12-16T16:08:31.183Z,98016.75
2022-12-16T16:11:22.640Z,98015.42
2022-12-16T16:14:14.500Z,98025.94
2022-12-16T16:17:04.624Z,98032.37
2022-12-16T16:19:58.848Z,98036.88
2022-12-16T16:22:59.092Z,98043.61
2022-12-16T16:25:50.152Z,98045.29
2022-12-16T16:28:40.288Z,98044.44
2022-12-16T16:31:34.642Z,98043.15
2022-12-16T16:34:32.700Z,98040.23
2022-12-16T16:37:28.269Z,98041.13
2022-12-16T16:40:19.738Z,98050.70
2022-12-16T16:43:09.926Z,98053.64
2022-12-16T16:46:01.638Z,98058.88
2022-12-16T16:48:55.099Z,98065.75
2022-12-16T16:51:45.417Z,98076.12
2022-12-16T16:54:36.157Z,98082.20
2022-12-16T16:57:32.146Z,98072.79
2022-12-16T17:00:23.837Z,98074.43
2022-12-16T17:03:15.022Z,98077.23
2022-12-16T17:06:05.899Z,98088.79
2022-12-16T17:08:58.957Z,98103.46
2022-12-16T17:11:52.576Z,98104.99
2022-12-16T17:14:45.848Z,98105.13
2022-12-16T17:17:37.068Z,98101.15
2022-12-16T17:20:38.158Z,98101.17
2022-12-16T17:23:28.608Z,98099.13
2022-12-16T17:26:34.277Z,98104.51
2022-12-16T17:29:29.910Z,98119.38
2022-12-16T17:32:23.833Z,98127.08
2022-12-16T17:35:16.069Z,98132.04
2022-12-16T17:38:13.217Z,98143.00
2022-12-16T17:41:04.291Z,98147.88
2022-12-16T17:43:57.816Z,98157.52
2022-12-16T17:46:55.981Z,98156.58
2022-12-16T17:49:46.983Z,98153.68
2022-12-16T17:52:37.415Z,98156.14
2022-12-16T17:55:31.264Z,98158.82
2022-12-16T17:58:21.333Z,98160.02
2022-12-16T18:01:15.553Z,98157.87
2022-12-16T18:04:10.074Z,98169.55
2022-12-16T18:07:04.392Z,98179.20
2022-12-16T18:09:55.631Z,98175.81
2022-12-16T18:12:49.080Z,98175.56
2022-12-16T18:15:39.657Z,98173.29
2022-12-16T18:18:46.413Z,98178.22
2022-12-16T18:21:37.238Z,98183.48
2022-12-16T18:24:35.017Z,98182.15
2022-12-16T18:27:26.132Z,98179.63
2022-12-16T18:30:20.034Z,98180.34
2022-12-16T18:33:10.645Z,98186.73
2022-12-16T18:36:06.473Z,98196.48
2022-12-16T18:38:57.340Z,98187.39
2022-12-16T18:41:50.706Z,98184.05
2022-12-16T18:44:40.820Z,98193.29
2022-12-16T18:47:43.045Z,98206.84
2022-12-16T18:50:37.844Z,98195.35
2022-12-16T18:53:32.057Z,98192.19
2022-12-16T18:56:25.023Z,98197.35
2022-12-16T18:59:19.294Z,98203.30
2022-12-16T19:02:11.254Z,98207.78
2022-12-16T19:05:05.907Z,98209.42
2022-12-16T19:07:56.531Z,98212.63
2022-12-16T19:10:47.282Z,98225.87
2022-12-16T19:13:38.682Z,98232.36
2022-12-16T19:16:31.889Z,98236.92
2022-12-16T19:19:23.669Z,98241.77
2022-12-16T19:22:15.978Z,98234.02
2022-12-16T19:25:06.687Z,98231.44
2022-12-16T19:27:56.891Z,98238.97
2022-12-16T19:30:48.792Z,98246.79
2022-12-16T19:33:51.905Z,98248.92
2022-12-16T19:36:47.076Z,98250.36
2022-12-16T19:39:41.516Z,98248.48
2022-12-16T19:42:32.075Z,98263.55
2022-12-16T19:45:22.878Z,98276.55
2022-12-16T19:48:16.332Z,98276.64
2022-12-16T19:51:09.542Z,98283.25
2022-12-16T19:54:03.631Z,98289.73
2022-12-16T19:57:04.523Z,98288.72
2022-12-16T19:59:54.741Z,98290.80
2022-12-16T20:02:49.076Z,98292.48
2022-12-16T20:05:40.919Z,98302.50
2022-12-16T20:08:34.434Z,98310.85
2022-12-16T20:11:27.516Z,98310.36
2022-12-16T20:14:19.706Z,98310.38
2022-12-16T20:17:10.754Z,98307.64
2022-12-16T20:20:01.092Z,98313.39
2022-12-16T20:22:53.993Z,98313.35
2022-12-16T20:25:48.059Z,98320.95
2022-12-16T20:28:39.672Z,98324.77
2022-12-16T20:31:30.516Z,98322.44
2022-12-16T20:34:21.569Z,98327.63
2022-12-16T20:37:12.600Z,98323.02
2022-12-16T20:40:05.793Z,98316.23
2022-12-16T20:43:00.449Z,98326.38
2022-12-16T20:45:56.193Z,98332.86
2022-12-16T20:48:48.758Z,98330.55
2022-12-16T20:51:40.900Z,98330.77
2022-12-16T20:54:33.541Z,98345.09
2022-12-16T20:57:24.307Z,98354.30
2022-12-16T21:00:17.545Z,98355.58
2022-12-16T21:03:10.723Z,98355.25
2022-12-16T21:06:16.803Z,98362.08
2022-12-16T21:09:11.489Z,98372.52
2022-12-16T21:12:03.728Z,98384.66
2022-12-16T21:14:54.374Z,98386.00
2022-12-16T21:17:47.076Z,98381.71
2022-12-16T21:20:38.432Z,98380.90
2022-12-16T21:23:31.452Z,98384.27
2022-12-16T21:26:23.301Z,98383.38
2022-12-16T21:29:13.938Z,98381.41
2022-12-16T21:32:04.744Z,98381.13
2022-12-16T21:34:54.622Z,98382.84
2022-12-16T21:37:49.366Z,98384.98
2022-12-16T21:40:42.564Z,98395.06
2022-12-16T21:43:41.129Z,98399.42
2022-12-16T21:46:34.484Z,98395.33
2022-12-16T21:49:27.062Z,98392.35
2022-12-16T21:52:18.574Z,98388.25
2022-12-16T21:55:11.308Z,98391.54
2022-12-16T21:58:05.127Z,98398.35
2022-12-16T22:01:00.554Z,98398.91
2022-12-16T22:03:56.777Z,98403.50
2022-12-16T22:06:50.554Z,98417.38
2022-12-16T22:09:43.005Z,98421.05
2022-12-16T22:12:37.789Z,98416.42
2022-12-16T22:15:30.565Z,98407.50
2022-12-16T22:18:23.900Z,98421.49
2022-12-16T22:21:19.125Z,98431.43
2022-12-16T22:24:11.413Z,98430.52
2022-12-16T22:27:04.662Z,98418.27
2022-12-16T22:29:56.019Z,98419.96
2022-12-16T22:32:49.513Z,98429.46
2022-12-16T22:35:42.053Z,98432.71
2022-12-16T22:38:32.061Z,98433.24
2022-12-16T22:41:25.985Z,98423.83
2022-12-16T22:44:17.537Z,98426.05
2022-12-16T22:47:07.856Z,98429.76
2022-12-16T22:49:59.604Z,98430.98
2022-12-16T22:53:06.689Z,98431.48
2022-12-16T22:56:01.913Z,98431.89
2022-12-16T22:58:55.015Z,98438.38
2022-12-16T23:01:46.476Z,98446.55
2022-12-16T23:04:36.570Z,98441.27
2022-12-16T23:07:26.448Z,98431.41
2022-12-16T23:10:20.877Z,98433.75
2022-12-16T23:13:11.527Z,98430.13
2022-12-16T23:16:04.178Z,98433.01
2022-12-16T23:18:59.710Z,98436.55
2022-12-16T23:21:51.576Z,98435.14
2022-12-16T23:24:45.325Z,98432.30
2022-12-16T23:27:36.025Z,98437.20
2022-12-16T23:30:29.682Z,98443.27
2022-12-16T23:33:23.991Z,98445.55
2022-12-16T23:36:14.052Z,98446.55
2022-12-16T23:39:06.401Z,98445.65
2022-12-16T23:41:58.226Z,98443.02
2022-12-16T23:44:56.250Z,98450.75
2022-12-16T23:47:50.033Z,98450.48
2022-12-16T23:50:41.084Z,98452.05
2022-12-16T23:53:31.490Z,98461.52
2022-12-16T23:56:23.977Z,98472.69
2022-12-16T23:59:13.346Z,98477.27
